sensor_id;sensor_type;location;lat;lon;timestamp;pressure;altitude;pressure_sealevel;temperature;humidity
48848;BME280;36611;51.638;5.784;2023-05-25T00:00:14;102472.75;;;25.18;37.24
48848;BME280;36611;51.638;5.784;2023-05-25T00:02:41;102470.00;;;25.18;37.17
48848;BME280;36611;51.638;5.784;2023-05-25T00:05:09;102470.00;;;25.18;37.23
48848;BME280;36611;51.638;5.784;2023-05-25T00:07:36;102471.03;;;25.17;37.03
48848;BME280;36611;51.638;5.784;2023-05-25T00:10:04;102471.03;;;25.17;37.05
48848;BME280;36611;51.638;5.784;2023-05-25T00:12:32;102471.03;;;25.17;37.17
48848;BME280;36611;51.638;5.784;2023-05-25T00:14:59;102471.03;;;25.17;37.19
48848;BME280;36611;51.638;5.784;2023-05-25T00:17:25;102472.94;;;25.16;37.02
48848;BME280;36611;51.638;5.784;2023-05-25T00:19:58;102472.06;;;25.16;36.96
48848;BME280;36611;51.638;5.784;2023-05-25T00:22:36;102474.81;;;25.16;37.18
48848;BME280;36611;51.638;5.784;2023-05-25T00:25:03;102476.69;;;25.15;37.10
48848;BME280;36611;51.638;5.784;2023-05-25T00:27:30;102475.84;;;25.15;37.25
48848;BME280;36611;51.638;5.784;2023-05-25T00:29:57;102478.59;;;25.15;37.00
48848;BME280;36611;51.638;5.784;2023-05-25T00:32:26;102469.47;;;25.14;37.08
48848;BME280;36611;51.638;5.784;2023-05-25T00:34:53;102476.69;;;25.15;36.95
48848;BME280;36611;51.638;5.784;2023-05-25T00:37:20;102474.13;;;25.14;37.22
48848;BME280;36611;51.638;5.784;2023-05-25T00:39:46;102468.63;;;25.14;37.26
48848;BME280;36611;51.638;5.784;2023-05-25T00:42:13;102470.50;;;25.13;37.19
48848;BME280;36611;51.638;5.784;2023-05-25T00:44:41;102474.13;;;25.14;37.37
48848;BME280;36611;51.638;5.784;2023-05-25T00:47:08;102467.75;;;25.13;37.37
48848;BME280;36611;51.638;5.784;2023-05-25T00:49:36;102472.22;;;25.14;37.34
48848;BME280;36611;51.638;5.784;2023-05-25T00:52:03;102471.38;;;25.14;37.25
48848;BME280;36611;51.638;5.784;2023-05-25T00:54:30;102474.13;;;25.14;37.04
48848;BME280;36611;51.638;5.784;2023-05-25T00:57:00;102468.63;;;25.14;37.09
48848;BME280;36611;51.638;5.784;2023-05-25T00:59:32;102470.50;;;25.13;37.02
48848;BME280;36611;51.638;5.784;2023-05-25T01:02:07;102480.63;;;25.13;37.15
48848;BME280;36611;51.638;5.784;2023-05-25T01:04:39;102485.28;;;25.12;37.08
48848;BME280;36611;51.638;5.784;2023-05-25T01:07:16;102488.88;;;25.13;37.22
48848;BME280;36611;51.638;5.784;2023-05-25T01:09:44;102483.56;;;25.11;37.15
48848;BME280;36611;51.638;5.784;2023-05-25T01:12:13;102479.94;;;25.11;37.39
48848;BME280;36611;51.638;5.784;2023-05-25T01:14:40;102489.06;;;25.11;37.09
48848;BME280;36611;51.638;5.784;2023-05-25T01:17:09;102480.81;;;25.11;37.00
48848;BME280;36611;51.638;5.784;2023-05-25T01:19:36;102483.56;;;25.11;37.21
48848;BME280;36611;51.638;5.784;2023-05-25T01:24:55;102480.09;;;25.09;37.18
48848;BME280;36611;51.638;5.784;2023-05-25T01:27:32;102493.69;;;25.11;37.28
48848;BME280;36611;51.638;5.784;2023-05-25T01:30:02;102492.13;;;25.08;37.21
48848;BME280;36611;51.638;5.784;2023-05-25T01:32:30;102489.38;;;25.08;37.07
48848;BME280;36611;51.638;5.784;2023-05-25T01:34:59;102493.16;;;25.07;37.07
48848;BME280;36611;51.638;5.784;2023-05-25T01:37:26;102499.53;;;25.08;37.29
48848;BME280;36611;51.638;5.784;2023-05-25T01:39:55;102500.38;;;25.08;37.24
48848;BME280;36611;51.638;5.784;2023-05-25T01:42:21;102494.88;;;25.08;37.11
48848;BME280;36611;51.638;5.784;2023-05-25T01:44:48;102500.38;;;25.08;37.22
48848;BME280;36611;51.638;5.784;2023-05-25T01:47:22;102504.84;;;25.09;36.98
48848;BME280;36611;51.638;5.784;2023-05-25T01:52:53;102498.81;;;25.06;37.02
48848;BME280;36611;51.638;5.784;2023-05-25T01:55:21;102503.09;;;25.00;37.18
48848;BME280;36611;51.638;5.784;2023-05-25T01:57:54;102510.31;;;25.01;37.32
48848;BME280;36611;51.638;5.784;2023-05-25T02:00:27;102508.41;;;25.01;37.03
48848;BME280;36611;51.638;5.784;2023-05-25T02:02:57;102510.31;;;25.01;37.18
48848;BME280;36611;51.638;5.784;2023-05-25T02:05:24;102507.41;;;25.02;36.97
48848;BME280;36611;51.638;5.784;2023-05-25T02:07:53;102509.28;;;25.02;37.27
48848;BME280;36611;51.638;5.784;2023-05-25T02:10:19;102501.03;;;25.02;37.17
48848;BME280;36611;51.638;5.784;2023-05-25T02:12:48;102502.75;;;25.03;37.15
48848;BME280;36611;51.638;5.784;2023-05-25T02:15:15;102504.66;;;25.02;36.95
48848;BME280;36611;51.638;5.784;2023-05-25T02:17:41;102497.44;;;25.01;37.37
48848;BME280;36611;51.638;5.784;2023-05-25T02:20:10;102505.50;;;25.03;36.97
48848;BME280;36611;51.638;5.784;2023-05-25T02:22:37;102512.03;;;25.02;37.09
48848;BME280;36611;51.638;5.784;2023-05-25T02:25:06;102509.28;;;25.02;37.24
48848;BME280;36611;51.638;5.784;2023-05-25T02:27:35;102503.78;;;25.02;37.03
48848;BME280;36611;51.638;5.784;2023-05-25T02:30:02;102510.16;;;25.02;37.25
48848;BME280;36611;51.638;5.784;2023-05-25T02:32:28;102500.19;;;25.01;37.34
48848;BME280;36611;51.638;5.784;2023-05-25T02:34:56;102504.81;;;25.01;36.98
48848;BME280;36611;51.638;5.784;2023-05-25T02:37:23;102500.19;;;25.01;37.17
48848;BME280;36611;51.638;5.784;2023-05-25T02:39:49;102511.16;;;25.01;37.27
48848;BME280;36611;51.638;5.784;2023-05-25T02:42:16;102504.81;;;25.01;37.15
48848;BME280;36611;51.638;5.784;2023-05-25T02:44:43;102507.56;;;25.01;37.28
48848;BME280;36611;51.638;5.784;2023-05-25T02:47:14;102514.09;;;25.00;37.07
48848;BME280;36611;51.638;5.784;2023-05-25T02:49:41;102504.97;;;24.99;37.38
48848;BME280;36611;51.638;5.784;2023-05-25T02:52:08;102501.38;;;24.99;37.25
48848;BME280;36611;51.638;5.784;2023-05-25T02:54:34;102499.47;;;24.99;37.19
48848;BME280;36611;51.638;5.784;2023-05-25T02:57:02;102510.47;;;24.99;37.12
48848;BME280;36611;51.638;5.784;2023-05-25T02:59:30;102507.88;;;24.98;36.90
48848;BME280;36611;51.638;5.784;2023-05-25T03:01:57;102511.50;;;24.98;37.13
48848;BME280;36611;51.638;5.784;2023-05-25T03:04:25;102507.88;;;24.98;37.34
48848;BME280;36611;51.638;5.784;2023-05-25T03:06:52;102521.63;;;24.98;36.72
48848;BME280;36611;51.638;5.784;2023-05-25T03:09:20;102524.38;;;24.98;37.17
48848;BME280;36611;51.638;5.784;2023-05-25T03:11:48;102516.25;;;24.96;36.96
48848;BME280;36611;51.638;5.784;2023-05-25T03:14:17;102528.13;;;24.97;37.21
48848;BME280;36611;51.638;5.784;2023-05-25T03:16:51;102522.78;;;24.95;37.03
48848;BME280;36611;51.638;5.784;2023-05-25T03:19:21;102531.91;;;24.96;37.28
48848;BME280;36611;51.638;5.784;2023-05-25T03:21:47;102529.16;;;24.96;37.14
48848;BME280;36611;51.638;5.784;2023-05-25T03:24:14;102531.03;;;24.95;37.05
48848;BME280;36611;51.638;5.784;2023-05-25T03:26:42;102533.78;;;24.95;37.14
48848;BME280;36611;51.638;5.784;2023-05-25T03:29:09;102538.41;;;24.95;37.05
48848;BME280;36611;51.638;5.784;2023-05-25T03:31:36;102543.91;;;24.95;37.17
48848;BME280;36611;51.638;5.784;2023-05-25T03:34:03;102553.03;;;24.95;37.32
48848;BME280;36611;51.638;5.784;2023-05-25T03:36:32;102543.91;;;24.95;37.32
48848;BME280;36611;51.638;5.784;2023-05-25T03:38:59;102556.78;;;24.94;37.34
48848;BME280;36611;51.638;5.784;2023-05-25T03:41:26;102554.03;;;24.94;37.21
48848;BME280;36611;51.638;5.784;2023-05-25T03:43:54;102559.69;;;24.93;37.04
48848;BME280;36611;51.638;5.784;2023-05-25T03:46:20;102561.59;;;24.92;37.10
48848;BME280;36611;51.638;5.784;2023-05-25T03:48:47;102564.34;;;24.92;37.06
48848;BME280;36611;51.638;5.784;2023-05-25T03:51:14;102561.44;;;24.94;37.01
48848;BME280;36611;51.638;5.784;2023-05-25T03:53:41;102559.69;;;24.93;37.39
48848;BME280;36611;51.638;5.784;2023-05-25T03:56:08;102565.19;;;24.93;37.22
48848;BME280;36611;51.638;5.784;2023-05-25T03:58:36;102564.34;;;24.92;37.12
48848;BME280;36611;51.638;5.784;2023-05-25T04:01:02;102568.97;;;24.92;37.14
48848;BME280;36611;51.638;5.784;2023-05-25T04:03:30;102565.38;;;24.91;37.16
48848;BME280;36611;51.638;5.784;2023-05-25T04:05:58;102566.22;;;24.92;37.02
48848;BME280;36611;51.638;5.784;2023-05-25T04:08:25;102563.47;;;24.92;36.99
48848;BME280;36611;51.638;5.784;2023-05-25T04:10:54;102570.00;;;24.91;37.20
48848;BME280;36611;51.638;5.784;2023-05-25T04:13:21;102565.53;;;24.90;36.99
48848;BME280;36611;51.638;5.784;2023-05-25T04:15:49;102567.25;;;24.91;37.04
48848;BME280;36611;51.638;5.784;2023-05-25T04:18:20;102563.63;;;24.90;37.41
48848;BME280;36611;51.638;5.784;2023-05-25T04:20:47;102568.28;;;24.90;37.09
48848;BME280;36611;51.638;5.784;2023-05-25T04:23:15;102571.88;;;24.90;37.10
48848;BME280;36611;51.638;5.784;2023-05-25T04:25:44;102572.03;;;24.89;37.17
48848;BME280;36611;51.638;5.784;2023-05-25T04:28:13;102572.91;;;24.89;37.07
48848;BME280;36611;51.638;5.784;2023-05-25T04:30:51;102576.69;;;24.88;37.03
48848;BME280;36611;51.638;5.784;2023-05-25T04:33:42;102572.19;;;24.87;37.38
48848;BME280;36611;51.638;5.784;2023-05-25T04:36:16;102577.69;;;24.87;37.06
48848;BME280;36611;51.638;5.784;2023-05-25T04:38:43;102582.34;;;24.87;36.78
48848;BME280;36611;51.638;5.784;2023-05-25T04:41:14;102574.94;;;24.87;36.96
48848;BME280;36611;51.638;5.784;2023-05-25T04:43:45;102580.44;;;24.87;37.02
48848;BME280;36611;51.638;5.784;2023-05-25T04:46:31;102580.44;;;24.87;37.14
48848;BME280;36611;51.638;5.784;2023-05-25T04:48:58;102584.06;;;24.88;37.17
48848;BME280;36611;51.638;5.784;2023-05-25T04:51:24;102578.56;;;24.88;37.07
48848;BME280;36611;51.638;5.784;2023-05-25T04:53:51;102584.06;;;24.88;37.31
48848;BME280;36611;51.638;5.784;2023-05-25T04:56:18;102585.78;;;24.89;37.14
48848;BME280;36611;51.638;5.784;2023-05-25T04:58:47;102588.53;;;24.89;37.25
48848;BME280;36611;51.638;5.784;2023-05-25T05:01:14;102605.88;;;24.89;37.18
48848;BME280;36611;51.638;5.784;2023-05-25T05:03:40;102604.16;;;24.88;37.08
48848;BME280;36611;51.638;5.784;2023-05-25T05:06:07;102604.16;;;24.88;36.95
48848;BME280;36611;51.638;5.784;2023-05-25T05:08:36;102606.06;;;24.88;37.18
48848;BME280;36611;51.638;5.784;2023-05-25T05:11:03;102601.41;;;24.88;37.08
48848;BME280;36611;51.638;5.784;2023-05-25T05:13:30;102597.81;;;24.88;37.23
48848;BME280;36611;51.638;5.784;2023-05-25T05:15:57;102592.31;;;24.88;37.19
48848;BME280;36611;51.638;5.784;2023-05-25T05:18:23;102586.81;;;24.88;37.14
48848;BME280;36611;51.638;5.784;2023-05-25T05:20:50;102596.78;;;24.89;37.24
48848;BME280;36611;51.638;5.784;2023-05-25T05:23:17;102600.41;;;24.89;37.06
48848;BME280;36611;51.638;5.784;2023-05-25T05:25:44;102604.00;;;24.90;37.04
48848;BME280;36611;51.638;5.784;2023-05-25T05:28:12;102608.63;;;24.89;37.09
48848;BME280;36611;51.638;5.784;2023-05-25T05:30:39;102612.41;;;24.88;37.00
48848;BME280;36611;51.638;5.784;2023-05-25T05:33:06;102621.34;;;24.90;36.81
48848;BME280;36611;51.638;5.784;2023-05-25T05:35:41;102618.59;;;24.90;36.93
48848;BME280;36611;51.638;5.784;2023-05-25T05:38:13;102621.34;;;24.90;37.35
48848;BME280;36611;51.638;5.784;2023-05-25T05:40:40;102624.97;;;24.91;36.99
48848;BME280;36611;51.638;5.784;2023-05-25T05:43:09;102628.59;;;24.91;37.00
48848;BME280;36611;51.638;5.784;2023-05-25T05:45:36;102627.72;;;24.91;37.08
48848;BME280;36611;51.638;5.784;2023-05-25T05:48:03;102630.31;;;24.92;37.10
48848;BME280;36611;51.638;5.784;2023-05-25T05:50:30;102631.31;;;24.91;37.12
48848;BME280;36611;51.638;5.784;2023-05-25T05:52:57;102634.06;;;24.91;36.93
48848;BME280;36611;51.638;5.784;2023-05-25T05:55:24;102626.69;;;24.92;36.92
48848;BME280;36611;51.638;5.784;2023-05-25T05:57:51;102630.31;;;24.92;36.94
48848;BME280;36611;51.638;5.784;2023-05-25T06:00:18;102631.31;;;24.91;36.90
48848;BME280;36611;51.638;5.784;2023-05-25T06:02:45;102637.53;;;24.93;37.21
48848;BME280;36611;51.638;5.784;2023-05-25T06:05:17;102644.03;;;24.92;36.99
48848;BME280;36611;51.638;5.784;2023-05-25T06:07:44;102644.91;;;24.93;36.94
48848;BME280;36611;51.638;5.784;2023-05-25T06:10:11;102642.16;;;24.93;36.87
48848;BME280;36611;51.638;5.784;2023-05-25T06:12:38;102640.28;;;24.93;37.11
48848;BME280;36611;51.638;5.784;2023-05-25T06:15:06;102645.78;;;24.93;37.17
48848;BME280;36611;51.638;5.784;2023-05-25T06:17:35;102643.88;;;24.94;37.10
48848;BME280;36611;51.638;5.784;2023-05-25T06:20:03;102644.91;;;24.93;36.86
48848;BME280;36611;51.638;5.784;2023-05-25T06:22:31;102646.63;;;24.94;36.89
48848;BME280;36611;51.638;5.784;2023-05-25T06:24:58;102652.13;;;24.94;37.11
48848;BME280;36611;51.638;5.784;2023-05-25T06:27:28;102661.25;;;24.94;36.99
48848;BME280;36611;51.638;5.784;2023-05-25T06:29:54;102662.09;;;24.95;37.26
48848;BME280;36611;51.638;5.784;2023-05-25T06:32:21;102664.00;;;24.94;37.08
48848;BME280;36611;51.638;5.784;2023-05-25T06:34:48;102662.09;;;24.95;36.92
48848;BME280;36611;51.638;5.784;2023-05-25T06:37:15;102664.84;;;24.95;36.90
48848;BME280;36611;51.638;5.784;2023-05-25T06:39:41;102664.84;;;24.95;36.99
48848;BME280;36611;51.638;5.784;2023-05-25T06:42:09;102665.72;;;24.95;36.98
48848;BME280;36611;51.638;5.784;2023-05-25T06:44:48;102669.50;;;24.94;37.10
48848;BME280;36611;51.638;5.784;2023-05-25T06:47:14;102673.09;;;24.95;37.12
48848;BME280;36611;51.638;5.784;2023-05-25T06:49:41;102671.22;;;24.95;37.29
48848;BME280;36611;51.638;5.784;2023-05-25T06:52:07;102677.56;;;24.96;37.05
48848;BME280;36611;51.638;5.784;2023-05-25T06:54:34;102680.31;;;24.96;37.29
48848;BME280;36611;51.638;5.784;2023-05-25T06:57:00;102679.31;;;24.97;37.25
48848;BME280;36611;51.638;5.784;2023-05-25T06:59:27;102676.56;;;24.97;37.02
48848;BME280;36611;51.638;5.784;2023-05-25T07:01:54;102681.19;;;24.96;37.00
48848;BME280;36611;51.638;5.784;2023-05-25T07:04:21;102688.44;;;24.97;37.27
48848;BME280;36611;51.638;5.784;2023-05-25T07:06:48;102690.28;;;24.97;36.79
48848;BME280;36611;51.638;5.784;2023-05-25T07:09:15;102684.81;;;24.97;37.19
48848;BME280;36611;51.638;5.784;2023-05-25T07:11:42;102689.31;;;24.98;37.11
48848;BME280;36611;51.638;5.784;2023-05-25T07:14:09;102689.31;;;24.98;37.14
48848;BME280;36611;51.638;5.784;2023-05-25T07:16:36;102695.66;;;24.98;37.10
48848;BME280;36611;51.638;5.784;2023-05-25T07:19:02;102691.19;;;24.97;37.49
48848;BME280;36611;51.638;5.784;2023-05-25T07:21:32;102691.03;;;24.99;37.17
48848;BME280;36611;51.638;5.784;2023-05-25T07:23:59;102679.19;;;24.98;37.29
48848;BME280;36611;51.638;5.784;2023-05-25T07:26:26;102684.69;;;24.98;37.04
48848;BME280;36611;51.638;5.784;2023-05-25T07:28:53;102680.91;;;24.99;36.95
48848;BME280;36611;51.638;5.784;2023-05-25T07:31:20;102682.78;;;24.99;37.27
48848;BME280;36611;51.638;5.784;2023-05-25T07:33:47;102681.75;;;25.00;37.08
48848;BME280;36611;51.638;5.784;2023-05-25T07:36:14;102693.63;;;25.00;37.15
48848;BME280;36611;51.638;5.784;2023-05-25T07:38:41;102696.38;;;25.00;37.22
48848;BME280;36611;51.638;5.784;2023-05-25T07:41:07;102690.88;;;25.00;37.14
48848;BME280;36611;51.638;5.784;2023-05-25T07:43:34;102690.00;;;25.00;37.25
48848;BME280;36611;51.638;5.784;2023-05-25T07:46:01;102700.00;;;25.01;37.57
48848;BME280;36611;51.638;5.784;2023-05-25T07:48:28;102696.38;;;25.00;37.19
48848;BME280;36611;51.638;5.784;2023-05-25T07:50:54;102703.59;;;25.01;37.30
48848;BME280;36611;51.638;5.784;2023-05-25T07:53:21;102703.59;;;25.01;37.27
48848;BME280;36611;51.638;5.784;2023-05-25T07:55:48;102700.00;;;25.01;37.07
48848;BME280;36611;51.638;5.784;2023-05-25T07:58:15;102707.22;;;25.02;37.10
48848;BME280;36611;51.638;5.784;2023-05-25T08:00:41;102703.59;;;25.01;37.21
48848;BME280;36611;51.638;5.784;2023-05-25T08:03:09;102708.94;;;25.03;37.38
48848;BME280;36611;51.638;5.784;2023-05-25T08:05:36;102710.81;;;25.02;37.39
48848;BME280;36611;51.638;5.784;2023-05-25T08:08:03;102705.31;;;25.02;37.21
48848;BME280;36611;51.638;5.784;2023-05-25T08:10:29;102714.44;;;25.03;37.14
48848;BME280;36611;51.638;5.784;2023-05-25T08:12:58;102707.91;;;25.04;37.02
48848;BME280;36611;51.638;5.784;2023-05-25T08:15:25;102710.66;;;25.04;36.93
48848;BME280;36611;51.638;5.784;2023-05-25T08:17:52;102716.16;;;25.04;37.16
48848;BME280;36611;51.638;5.784;2023-05-25T08:20:19;102717.03;;;25.05;37.40
48848;BME280;36611;51.638;5.784;2023-05-25T08:22:45;102722.53;;;25.05;37.12
48848;BME280;36611;51.638;5.784;2023-05-25T08:25:12;102723.38;;;25.05;37.34
48848;BME280;36611;51.638;5.784;2023-05-25T08:27:39;102716.00;;;25.06;36.89
48848;BME280;36611;51.638;5.784;2023-05-25T08:30:06;102714.97;;;25.07;37.25
48848;BME280;36611;51.638;5.784;2023-05-25T08:32:32;102721.34;;;25.07;37.22
48848;BME280;36611;51.638;5.784;2023-05-25T08:34:59;102721.34;;;25.07;37.21
48848;BME280;36611;51.638;5.784;2023-05-25T08:37:27;102734.94;;;25.09;37.33
48848;BME280;36611;51.638;5.784;2023-05-25T08:39:54;102734.06;;;25.08;37.40
48848;BME280;36611;51.638;5.784;2023-05-25T08:42:21;102728.56;;;25.08;37.28
48848;BME280;36611;51.638;5.784;2023-05-25T08:44:49;102735.78;;;25.09;37.20
48848;BME280;36611;51.638;5.784;2023-05-25T08:47:16;102728.41;;;25.10;37.18
48848;BME280;36611;51.638;5.784;2023-05-25T08:49:43;102734.78;;;25.10;37.20
48848;BME280;36611;51.638;5.784;2023-05-25T08:52:13;102733.75;;;25.11;37.13
48848;BME280;36611;51.638;5.784;2023-05-25T08:54:42;102732.03;;;25.10;37.15
48848;BME280;36611;51.638;5.784;2023-05-25T09:05:19;102735.78;;;25.09;37.06
48848;BME280;36611;51.638;5.784;2023-05-25T09:07:46;102734.78;;;25.10;37.29
48848;BME280;36611;51.638;5.784;2023-05-25T09:10:13;102733.75;;;25.11;37.02
48848;BME280;36611;51.638;5.784;2023-05-25T09:12:41;102736.50;;;25.11;37.05
48848;BME280;36611;51.638;5.784;2023-05-25T09:15:11;102747.34;;;25.13;37.16
48848;BME280;36611;51.638;5.784;2023-05-25T09:17:39;102744.75;;;25.11;37.20
48848;BME280;36611;51.638;5.784;2023-05-25T09:20:09;102749.22;;;25.12;37.17
48848;BME280;36611;51.638;5.784;2023-05-25T09:22:36;102745.63;;;25.12;37.09
48848;BME280;36611;51.638;5.784;2023-05-25T09:25:05;102747.34;;;25.13;37.21
48848;BME280;36611;51.638;5.784;2023-05-25T09:27:34;102737.38;;;25.12;37.19
48848;BME280;36611;51.638;5.784;2023-05-25T09:30:03;102741.84;;;25.13;37.33
48848;BME280;36611;51.638;5.784;2023-05-25T09:32:30;102749.22;;;25.12;37.03
48848;BME280;36611;51.638;5.784;2023-05-25T09:35:12;102744.59;;;25.13;36.97
48848;BME280;36611;51.638;5.784;2023-05-25T09:37:40;102744.59;;;25.13;36.95
48848;BME280;36611;51.638;5.784;2023-05-25T09:40:08;102751.97;;;25.12;37.07
48848;BME280;36611;51.638;5.784;2023-05-25T09:42:36;102748.38;;;25.12;37.01
48848;BME280;36611;51.638;5.784;2023-05-25T09:45:03;102748.19;;;25.13;36.95
48848;BME280;36611;51.638;5.784;2023-05-25T09:47:31;102755.59;;;25.13;36.96
48848;BME280;36611;51.638;5.784;2023-05-25T09:49:58;102750.09;;;25.13;37.14
48848;BME280;36611;51.638;5.784;2023-05-25T09:52:26;102748.19;;;25.13;37.20
48848;BME280;36611;51.638;5.784;2023-05-25T09:54:52;102751.81;;;25.14;36.74
48848;BME280;36611;51.638;5.784;2023-05-25T09:57:20;102751.81;;;25.14;36.98
48848;BME280;36611;51.638;5.784;2023-05-25T09:59:47;102757.31;;;25.14;37.17
48848;BME280;36611;51.638;5.784;2023-05-25T10:02:13;102755.44;;;25.14;37.25
48848;BME280;36611;51.638;5.784;2023-05-25T10:04:41;102756.28;;;25.15;37.13
48848;BME280;36611;51.638;5.784;2023-05-25T10:07:08;102752.69;;;25.14;37.02
48848;BME280;36611;51.638;5.784;2023-05-25T10:09:38;102743.41;;;25.15;36.89
48848;BME280;36611;51.638;5.784;2023-05-25T10:12:06;102753.53;;;25.15;37.15
48848;BME280;36611;51.638;5.784;2023-05-25T10:14:35;102755.28;;;25.16;36.91
48848;BME280;36611;51.638;5.784;2023-05-25T10:17:04;102754.41;;;25.15;37.42
48848;BME280;36611;51.638;5.784;2023-05-25T10:19:36;102761.63;;;25.16;37.03
48848;BME280;36611;51.638;5.784;2023-05-25T10:22:19;102760.78;;;25.16;37.15
48848;BME280;36611;51.638;5.784;2023-05-25T10:25:09;102761.63;;;25.16;37.11
48848;BME280;36611;51.638;5.784;2023-05-25T10:27:58;102764.53;;;25.15;36.88
48848;BME280;36611;51.638;5.784;2023-05-25T10:30:25;102766.44;;;25.14;36.96
48848;BME280;36611;51.638;5.784;2023-05-25T10:32:56;102759.91;;;25.15;36.88
48848;BME280;36611;51.638;5.784;2023-05-25T10:35:23;102758.19;;;25.14;37.09
48848;BME280;36611;51.638;5.784;2023-05-25T10:37:51;102756.13;;;25.16;37.01
48848;BME280;36611;51.638;5.784;2023-05-25T10:40:19;102755.28;;;25.16;36.98
48848;BME280;36611;51.638;5.784;2023-05-25T10:42:47;102757.16;;;25.15;37.04
48848;BME280;36611;51.638;5.784;2023-05-25T10:45:14;102756.13;;;25.16;37.07
48848;BME280;36611;51.638;5.784;2023-05-25T10:47:42;102750.63;;;25.16;36.88
48848;BME280;36611;51.638;5.784;2023-05-25T10:50:20;102748.75;;;25.17;37.14
48848;BME280;36611;51.638;5.784;2023-05-25T10:53:08;102750.47;;;25.18;37.12
48848;BME280;36611;51.638;5.784;2023-05-25T10:56:04;102750.63;;;25.16;37.13
48848;BME280;36611;51.638;5.784;2023-05-25T10:58:31;102751.66;;;25.15;37.01
48848;BME280;36611;51.638;5.784;2023-05-25T11:06:18;102748.91;;;25.15;37.06
48848;BME280;36611;51.638;5.784;2023-05-25T11:08:48;102747.03;;;25.16;36.79
48848;BME280;36611;51.638;5.784;2023-05-25T11:11:15;102738.63;;;25.17;37.15
48848;BME280;36611;51.638;5.784;2023-05-25T11:13:46;102740.34;;;25.18;36.97
48848;BME280;36611;51.638;5.784;2023-05-25T11:16:42;102740.34;;;25.18;37.07
48848;BME280;36611;51.638;5.784;2023-05-25T11:19:14;102740.34;;;25.18;36.94
48848;BME280;36611;51.638;5.784;2023-05-25T11:21:42;102729.34;;;25.18;36.99
48848;BME280;36611;51.638;5.784;2023-05-25T11:24:14;102727.47;;;25.19;37.11
48848;BME280;36611;51.638;5.784;2023-05-25T11:26:58;102729.19;;;25.20;36.82
48848;BME280;36611;51.638;5.784;2023-05-25T11:29:29;102733.81;;;25.19;36.88
48848;BME280;36611;51.638;5.784;2023-05-25T11:31:56;102728.47;;;25.18;36.91
48848;BME280;36611;51.638;5.784;2023-05-25T11:34:23;102721.97;;;25.19;36.88
48848;BME280;36611;51.638;5.784;2023-05-25T11:36:55;102728.16;;;25.21;36.80
48848;BME280;36611;51.638;5.784;2023-05-25T11:39:23;102726.44;;;25.20;36.93
48848;BME280;36611;51.638;5.784;2023-05-25T11:41:54;102724.53;;;25.20;36.98
48848;BME280;36611;51.638;5.784;2023-05-25T11:44:28;102725.25;;;25.22;36.98
48848;BME280;36611;51.638;5.784;2023-05-25T11:46:56;102725.88;;;25.16;37.13
48848;BME280;36611;51.638;5.784;2023-05-25T11:49:23;102716.78;;;25.16;37.08
48848;BME280;36611;51.638;5.784;2023-05-25T11:51:52;102719.38;;;25.17;36.91
48848;BME280;36611;51.638;5.784;2023-05-25T11:54:27;102720.06;;;25.19;37.12
48848;BME280;36611;51.638;5.784;2023-05-25T11:56:55;102718.19;;;25.20;36.96
48848;BME280;36611;51.638;5.784;2023-05-25T11:59:25;102708.22;;;25.19;36.88
48848;BME280;36611;51.638;5.784;2023-05-25T12:02:01;102698.06;;;25.19;36.94
48848;BME280;36611;51.638;5.784;2023-05-25T12:04:29;102697.03;;;25.20;37.08
48848;BME280;36611;51.638;5.784;2023-05-25T12:07:00;102694.28;;;25.20;36.93
48848;BME280;36611;51.638;5.784;2023-05-25T12:09:28;102695.16;;;25.21;36.83
48848;BME280;36611;51.638;5.784;2023-05-25T12:11:54;102697.75;;;25.22;37.07
48848;BME280;36611;51.638;5.784;2023-05-25T12:14:21;102701.38;;;25.23;36.85
48848;BME280;36611;51.638;5.784;2023-05-25T12:16:50;102699.47;;;25.23;36.98
48848;BME280;36611;51.638;5.784;2023-05-25T12:19:17;102689.50;;;25.22;36.61
48848;BME280;36611;51.638;5.784;2023-05-25T12:21:44;102696.72;;;25.23;37.07
48848;BME280;36611;51.638;5.784;2023-05-25T12:24:10;102695.88;;;25.23;36.91
48848;BME280;36611;51.638;5.784;2023-05-25T12:26:50;102681.09;;;25.24;37.11
48848;BME280;36611;51.638;5.784;2023-05-25T12:29:23;102693.97;;;25.23;37.13
48848;BME280;36611;51.638;5.784;2023-05-25T12:31:51;102683.84;;;25.24;37.00
48848;BME280;36611;51.638;5.784;2023-05-25T12:34:18;102684.69;;;25.24;36.79
48848;BME280;36611;51.638;5.784;2023-05-25T12:36:50;102690.91;;;25.26;37.00
48848;BME280;36611;51.638;5.784;2023-05-25T12:41:56;102691.22;;;25.23;37.12
48848;BME280;36611;51.638;5.784;2023-05-25T12:44:33;102699.31;;;25.25;37.04
48848;BME280;36611;51.638;5.784;2023-05-25T12:49:44;102700.34;;;25.24;36.87
48848;BME280;36611;51.638;5.784;2023-05-25T12:52:31;102705.69;;;25.25;36.68
48848;BME280;36611;51.638;5.784;2023-05-25T12:54:57;102708.59;;;25.24;37.04
48848;BME280;36611;51.638;5.784;2023-05-25T12:57:33;102700.19;;;25.25;36.98
48848;BME280;36611;51.638;5.784;2023-05-25T13:00:00;102705.69;;;25.25;36.90
48848;BME280;36611;51.638;5.784;2023-05-25T13:02:27;102694.69;;;25.25;36.91
48848;BME280;36611;51.638;5.784;2023-05-25T13:04:54;102691.06;;;25.25;37.10
48848;BME280;36611;51.638;5.784;2023-05-25T13:07:20;102687.28;;;25.26;37.27
48848;BME280;36611;51.638;5.784;2023-05-25T13:09:48;102685.41;;;25.26;36.90
48848;BME280;36611;51.638;5.784;2023-05-25T13:12:14;102679.78;;;25.28;36.85
48848;BME280;36611;51.638;5.784;2023-05-25T13:14:41;102690.63;;;25.29;36.79
48848;BME280;36611;51.638;5.784;2023-05-25T13:17:07;102680.63;;;25.28;36.96
48848;BME280;36611;51.638;5.784;2023-05-25T13:19:34;102680.63;;;25.28;36.96
48848;BME280;36611;51.638;5.784;2023-05-25T13:22:01;102676.88;;;25.29;36.89